sensor_id;sensor_type;location;lat;lon;timestamp;P1;durP1;ratioP1;P2;durP2;ratioP2
47089;SDS011;32840;52.516;13.294;2023-03-13T00:02:25;17.33;;;7.82;;
47089;SDS011;32840;52.516;13.294;2023-03-13T00:08:48;19.50;;;8.27;;
47089;SDS011;32840;52.516;13.294;2023-03-13T00:11:33;16.00;;;8.25;;
47089;SDS011;32840;52.516;13.294;2023-03-13T00:14:19;20.13;;;7.30;;
47089;SDS011;32840;52.516;13.294;2023-03-13T00:17:03;17.73;;;7.85;;
47089;SDS011;32840;52.516;13.294;2023-03-13T00:19:51;18.42;;;7.45;;
47089;SDS011;32840;52.516;13.294;2023-03-13T00:22:40;21.20;;;8.10;;
47089;SDS011;32840;52.516;13.294;2023-03-13T00:25:28;18.23;;;7.95;;
47089;SDS011;32840;52.516;13.294;2023-03-13T00:28:13;18.35;;;8.07;;
47089;SDS011;32840;52.516;13.294;2023-03-13T00:31:03;16.92;;;7.72;;
47089;SDS011;32840;52.516;13.294;2023-03-13T00:33:51;16.83;;;7.82;;
47089;SDS011;32840;52.516;13.294;2023-03-13T00:36:38;19.33;;;8.10;;
47089;SDS011;32840;52.516;13.294;2023-03-13T00:39:24;14.10;;;7.28;;
47089;SDS011;32840;52.516;13.294;2023-03-13T00:42:09;18.13;;;7.80;;
47089;SDS011;32840;52.516;13.294;2023-03-13T00:44:55;19.08;;;7.88;;
47089;SDS011;32840;52.516;13.294;2023-03-13T00:47:40;23.27;;;7.90;;
47089;SDS011;32840;52.516;13.294;2023-03-13T00:50:25;18.40;;;8.10;;
47089;SDS011;32840;52.516;13.294;2023-03-13T00:53:10;20.98;;;8.00;;
47089;SDS011;32840;52.516;13.294;2023-03-13T00:55:56;19.85;;;8.07;;
47089;SDS011;32840;52.516;13.294;2023-03-13T00:58:46;15.85;;;7.55;;
47089;SDS011;32840;52.516;13.294;2023-03-13T01:01:34;20.95;;;8.20;;
47089;SDS011;32840;52.516;13.294;2023-03-13T01:04:20;19.75;;;7.70;;
47089;SDS011;32840;52.516;13.294;2023-03-13T01:07:05;14.55;;;7.63;;
47089;SDS011;32840;52.516;13.294;2023-03-13T01:09:52;11.35;;;6.82;;
47089;SDS011;32840;52.516;13.294;2023-03-13T01:12:40;15.73;;;7.75;;
47089;SDS011;32840;52.516;13.294;2023-03-13T01:15:26;16.73;;;7.68;;
47089;SDS011;32840;52.516;13.294;2023-03-13T01:18:11;17.83;;;8.60;;
47089;SDS011;32840;52.516;13.294;2023-03-13T01:20:58;20.88;;;8.25;;
47089;SDS011;32840;52.516;13.294;2023-03-13T01:23:43;19.55;;;7.75;;
47089;SDS011;32840;52.516;13.294;2023-03-13T01:26:28;17.00;;;7.60;;
47089;SDS011;32840;52.516;13.294;2023-03-13T01:29:13;20.48;;;7.72;;
47089;SDS011;32840;52.516;13.294;2023-03-13T01:31:58;19.67;;;7.80;;
47089;SDS011;32840;52.516;13.294;2023-03-13T01:34:43;17.92;;;7.82;;
47089;SDS011;32840;52.516;13.294;2023-03-13T01:37:28;19.73;;;8.73;;
47089;SDS011;32840;52.516;13.294;2023-03-13T01:40:14;19.67;;;7.75;;
47089;SDS011;32840;52.516;13.294;2023-03-13T01:42:59;18.45;;;7.82;;
47089;SDS011;32840;52.516;13.294;2023-03-13T01:52:01;17.27;;;7.75;;
47089;SDS011;32840;52.516;13.294;2023-03-13T01:54:59;16.73;;;7.40;;
47089;SDS011;32840;52.516;13.294;2023-03-13T01:57:49;18.27;;;6.75;;
47089;SDS011;32840;52.516;13.294;2023-03-13T02:00:37;19.60;;;8.07;;
47089;SDS011;32840;52.516;13.294;2023-03-13T02:03:25;21.80;;;7.30;;
47089;SDS011;32840;52.516;13.294;2023-03-13T02:06:11;13.38;;;6.95;;
47089;SDS011;32840;52.516;13.294;2023-03-13T02:08:58;17.75;;;7.75;;
47089;SDS011;32840;52.516;13.294;2023-03-13T02:12:01;17.13;;;8.05;;
47089;SDS011;32840;52.516;13.294;2023-03-13T02:15:04;21.67;;;7.07;;
47089;SDS011;32840;52.516;13.294;2023-03-13T02:18:10;13.85;;;6.68;;
47089;SDS011;32840;52.516;13.294;2023-03-13T02:20:59;23.35;;;7.97;;
47089;SDS011;32840;52.516;13.294;2023-03-13T02:24:00;15.70;;;6.78;;
47089;SDS011;32840;52.516;13.294;2023-03-13T02:26:52;16.63;;;6.65;;
47089;SDS011;32840;52.516;13.294;2023-03-13T02:29:37;17.90;;;6.22;;
47089;SDS011;32840;52.516;13.294;2023-03-13T02:32:22;14.05;;;7.03;;
47089;SDS011;32840;52.516;13.294;2023-03-13T02:35:10;18.92;;;6.80;;
47089;SDS011;32840;52.516;13.294;2023-03-13T02:38:00;17.35;;;6.78;;
47089;SDS011;32840;52.516;13.294;2023-03-13T02:40:47;17.75;;;7.05;;
47089;SDS011;32840;52.516;13.294;2023-03-13T02:43:37;19.92;;;7.25;;
47089;SDS011;32840;52.516;13.294;2023-03-13T02:46:22;14.55;;;6.15;;
47089;SDS011;32840;52.516;13.294;2023-03-13T02:49:16;15.85;;;6.45;;
47089;SDS011;32840;52.516;13.294;2023-03-13T02:52:13;19.30;;;5.90;;
47089;SDS011;32840;52.516;13.294;2023-03-13T02:55:04;15.02;;;5.60;;
47089;SDS011;32840;52.516;13.294;2023-03-13T02:57:53;14.32;;;5.65;;
47089;SDS011;32840;52.516;13.294;2023-03-13T03:00:38;15.20;;;5.60;;
47089;SDS011;32840;52.516;13.294;2023-03-13T03:03:23;20.83;;;6.30;;
47089;SDS011;32840;52.516;13.294;2023-03-13T03:06:08;17.60;;;5.55;;
47089;SDS011;32840;52.516;13.294;2023-03-13T03:08:53;17.80;;;6.22;;
47089;SDS011;32840;52.516;13.294;2023-03-13T03:11:38;11.65;;;5.22;;
47089;SDS011;32840;52.516;13.294;2023-03-13T03:14:24;16.05;;;5.32;;
47089;SDS011;32840;52.516;13.294;2023-03-13T03:17:12;18.33;;;5.90;;
47089;SDS011;32840;52.516;13.294;2023-03-13T03:19:57;13.90;;;5.97;;
47089;SDS011;32840;52.516;13.294;2023-03-13T03:22:42;17.98;;;6.35;;
47089;SDS011;32840;52.516;13.294;2023-03-13T03:25:27;16.65;;;5.32;;
47089;SDS011;32840;52.516;13.294;2023-03-13T03:28:13;16.00;;;5.45;;
47089;SDS011;32840;52.516;13.294;2023-03-13T03:31:09;19.65;;;5.72;;
47089;SDS011;32840;52.516;13.294;2023-03-13T03:33:56;17.83;;;5.72;;
47089;SDS011;32840;52.516;13.294;2023-03-13T03:36:41;14.55;;;5.68;;
47089;SDS011;32840;52.516;13.294;2023-03-13T03:39:26;16.20;;;5.32;;
47089;SDS011;32840;52.516;13.294;2023-03-13T03:42:12;14.95;;;5.90;;
47089;SDS011;32840;52.516;13.294;2023-03-13T03:44:57;16.70;;;5.22;;
47089;SDS011;32840;52.516;13.294;2023-03-13T03:47:41;16.83;;;5.60;;
47089;SDS011;32840;52.516;13.294;2023-03-13T03:50:26;21.83;;;5.60;;
47089;SDS011;32840;52.516;13.294;2023-03-13T03:53:14;17.42;;;4.70;;
47089;SDS011;32840;52.516;13.294;2023-03-13T03:56:00;16.95;;;5.50;;
47089;SDS011;32840;52.516;13.294;2023-03-13T03:58:46;20.55;;;5.05;;
47089;SDS011;32840;52.516;13.294;2023-03-13T04:01:31;15.55;;;4.35;;
47089;SDS011;32840;52.516;13.294;2023-03-13T04:04:18;20.75;;;4.97;;
47089;SDS011;32840;52.516;13.294;2023-03-13T04:07:03;20.10;;;5.65;;
47089;SDS011;32840;52.516;13.294;2023-03-13T04:09:50;15.77;;;4.80;;
47089;SDS011;32840;52.516;13.294;2023-03-13T04:12:36;14.50;;;4.75;;
47089;SDS011;32840;52.516;13.294;2023-03-13T04:15:21;13.35;;;5.13;;
47089;SDS011;32840;52.516;13.294;2023-03-13T04:18:06;19.13;;;5.07;;
47089;SDS011;32840;52.516;13.294;2023-03-13T04:20:59;18.70;;;4.53;;
47089;SDS011;32840;52.516;13.294;2023-03-13T04:23:46;16.23;;;4.70;;
47089;SDS011;32840;52.516;13.294;2023-03-13T04:26:32;14.70;;;4.85;;
47089;SDS011;32840;52.516;13.294;2023-03-13T04:29:18;16.23;;;5.15;;
47089;SDS011;32840;52.516;13.294;2023-03-13T04:32:03;14.73;;;4.53;;
47089;SDS011;32840;52.516;13.294;2023-03-13T04:34:49;20.15;;;5.38;;
47089;SDS011;32840;52.516;13.294;2023-03-13T04:37:34;23.20;;;5.53;;
47089;SDS011;32840;52.516;13.294;2023-03-13T04:40:20;15.27;;;5.18;;
47089;SDS011;32840;52.516;13.294;2023-03-13T04:43:05;23.27;;;5.72;;
47089;SDS011;32840;52.516;13.294;2023-03-13T04:45:51;22.33;;;5.93;;
47089;SDS011;32840;52.516;13.294;2023-03-13T04:48:38;24.83;;;5.65;;
47089;SDS011;32840;52.516;13.294;2023-03-13T04:51:24;18.92;;;5.75;;
47089;SDS011;32840;52.516;13.294;2023-03-13T04:54:09;20.48;;;5.30;;
47089;SDS011;32840;52.516;13.294;2023-03-13T04:56:56;24.25;;;5.43;;
47089;SDS011;32840;52.516;13.294;2023-03-13T04:59:42;17.58;;;5.88;;
47089;SDS011;32840;52.516;13.294;2023-03-13T05:02:27;21.00;;;5.50;;
47089;SDS011;32840;52.516;13.294;2023-03-13T05:05:14;20.00;;;5.38;;
47089;SDS011;32840;52.516;13.294;2023-03-13T05:07:58;17.02;;;5.07;;
47089;SDS011;32840;52.516;13.294;2023-03-13T05:10:43;21.98;;;5.05;;
47089;SDS011;32840;52.516;13.294;2023-03-13T05:13:29;18.08;;;4.50;;
47089;SDS011;32840;52.516;13.294;2023-03-13T05:16:15;23.83;;;5.28;;
47089;SDS011;32840;52.516;13.294;2023-03-13T05:19:00;15.77;;;4.43;;
47089;SDS011;32840;52.516;13.294;2023-03-13T05:21:46;22.63;;;4.80;;
47089;SDS011;32840;52.516;13.294;2023-03-13T05:24:31;14.15;;;5.25;;
47089;SDS011;32840;52.516;13.294;2023-03-13T05:27:16;24.52;;;5.03;;
47089;SDS011;32840;52.516;13.294;2023-03-13T05:30:01;26.92;;;5.30;;
47089;SDS011;32840;52.516;13.294;2023-03-13T05:32:46;25.33;;;8.05;;
47089;SDS011;32840;52.516;13.294;2023-03-13T05:35:32;21.70;;;5.20;;
47089;SDS011;32840;52.516;13.294;2023-03-13T05:38:19;19.02;;;5.25;;
47089;SDS011;32840;52.516;13.294;2023-03-13T05:41:05;23.50;;;5.88;;
47089;SDS011;32840;52.516;13.294;2023-03-13T05:43:50;17.60;;;4.93;;
47089;SDS011;32840;52.516;13.294;2023-03-13T05:46:37;17.35;;;4.53;;
47089;SDS011;32840;52.516;13.294;2023-03-13T05:49:21;16.15;;;4.53;;
47089;SDS011;32840;52.516;13.294;2023-03-13T05:52:06;22.38;;;5.07;;
47089;SDS011;32840;52.516;13.294;2023-03-13T05:54:51;20.02;;;4.72;;
47089;SDS011;32840;52.516;13.294;2023-03-13T05:57:36;21.30;;;5.15;;
47089;SDS011;32840;52.516;13.294;2023-03-13T06:00:21;20.58;;;5.43;;
47089;SDS011;32840;52.516;13.294;2023-03-13T06:03:06;24.05;;;5.82;;
47089;SDS011;32840;52.516;13.294;2023-03-13T06:05:56;22.77;;;5.88;;
47089;SDS011;32840;52.516;13.294;2023-03-13T06:08:42;24.30;;;5.95;;
47089;SDS011;32840;52.516;13.294;2023-03-13T06:11:28;29.38;;;5.97;;
47089;SDS011;32840;52.516;13.294;2023-03-13T06:14:16;19.73;;;5.75;;
47089;SDS011;32840;52.516;13.294;2023-03-13T06:17:02;15.65;;;4.68;;
47089;SDS011;32840;52.516;13.294;2023-03-13T06:19:49;17.73;;;5.53;;
47089;SDS011;32840;52.516;13.294;2023-03-13T06:22:34;29.27;;;6.53;;
47089;SDS011;32840;52.516;13.294;2023-03-13T06:25:19;24.55;;;6.43;;
47089;SDS011;32840;52.516;13.294;2023-03-13T06:28:04;21.15;;;5.07;;
47089;SDS011;32840;52.516;13.294;2023-03-13T06:30:49;17.58;;;5.70;;
47089;SDS011;32840;52.516;13.294;2023-03-13T06:33:35;26.40;;;5.88;;
47089;SDS011;32840;52.516;13.294;2023-03-13T06:36:21;18.35;;;6.22;;
47089;SDS011;32840;52.516;13.294;2023-03-13T06:39:07;29.40;;;6.32;;
47089;SDS011;32840;52.516;13.294;2023-03-13T06:41:52;23.45;;;6.13;;
47089;SDS011;32840;52.516;13.294;2023-03-13T06:44:37;24.77;;;5.82;;
47089;SDS011;32840;52.516;13.294;2023-03-13T06:47:22;21.90;;;5.70;;
47089;SDS011;32840;52.516;13.294;2023-03-13T06:50:08;30.05;;;6.90;;
47089;SDS011;32840;52.516;13.294;2023-03-13T06:52:53;23.65;;;6.40;;
47089;SDS011;32840;52.516;13.294;2023-03-13T06:55:38;22.58;;;5.32;;
47089;SDS011;32840;52.516;13.294;2023-03-13T06:58:23;24.02;;;8.18;;
47089;SDS011;32840;52.516;13.294;2023-03-13T07:01:08;24.65;;;6.75;;
47089;SDS011;32840;52.516;13.294;2023-03-13T07:03:54;14.90;;;4.45;;
47089;SDS011;32840;52.516;13.294;2023-03-13T07:06:41;17.20;;;5.65;;
47089;SDS011;32840;52.516;13.294;2023-03-13T07:09:26;23.27;;;5.85;;
47089;SDS011;32840;52.516;13.294;2023-03-13T07:12:11;19.55;;;4.53;;
47089;SDS011;32840;52.516;13.294;2023-03-13T07:14:57;23.42;;;5.40;;
47089;SDS011;32840;52.516;13.294;2023-03-13T07:17:41;14.77;;;4.57;;
47089;SDS011;32840;52.516;13.294;2023-03-13T07:20:26;21.40;;;5.30;;
47089;SDS011;32840;52.516;13.294;2023-03-13T07:23:11;16.75;;;5.93;;
47089;SDS011;32840;52.516;13.294;2023-03-13T07:26:14;18.95;;;5.20;;
47089;SDS011;32840;52.516;13.294;2023-03-13T07:29:00;18.23;;;4.85;;
47089;SDS011;32840;52.516;13.294;2023-03-13T07:31:44;19.65;;;4.95;;
47089;SDS011;32840;52.516;13.294;2023-03-13T07:34:30;18.60;;;5.30;;
47089;SDS011;32840;52.516;13.294;2023-03-13T07:37:15;21.95;;;5.80;;
47089;SDS011;32840;52.516;13.294;2023-03-13T07:40:00;18.58;;;4.82;;
47089;SDS011;32840;52.516;13.294;2023-03-13T07:42:44;15.30;;;4.60;;
47089;SDS011;32840;52.516;13.294;2023-03-13T07:45:29;23.58;;;6.07;;
47089;SDS011;32840;52.516;13.294;2023-03-13T07:48:14;20.42;;;4.82;;
47089;SDS011;32840;52.516;13.294;2023-03-13T07:50:59;20.88;;;5.03;;
47089;SDS011;32840;52.516;13.294;2023-03-13T07:53:44;18.17;;;4.60;;
47089;SDS011;32840;52.516;13.294;2023-03-13T07:56:33;18.40;;;4.75;;
47089;SDS011;32840;52.516;13.294;2023-03-13T07:59:17;19.52;;;4.95;;
47089;SDS011;32840;52.516;13.294;2023-03-13T08:02:02;19.45;;;5.10;;
47089;SDS011;32840;52.516;13.294;2023-03-13T08:04:50;20.70;;;5.35;;
47089;SDS011;32840;52.516;13.294;2023-03-13T08:07:36;20.73;;;4.75;;
47089;SDS011;32840;52.516;13.294;2023-03-13T08:10:20;18.55;;;4.95;;
47089;SDS011;32840;52.516;13.294;2023-03-13T08:13:05;20.30;;;4.72;;
47089;SDS011;32840;52.516;13.294;2023-03-13T08:15:51;16.98;;;4.20;;
47089;SDS011;32840;52.516;13.294;2023-03-13T08:18:37;14.73;;;4.10;;
47089;SDS011;32840;52.516;13.294;2023-03-13T08:21:24;20.02;;;4.65;;
47089;SDS011;32840;52.516;13.294;2023-03-13T08:24:11;23.92;;;4.88;;
47089;SDS011;32840;52.516;13.294;2023-03-13T08:26:56;21.35;;;5.00;;
47089;SDS011;32840;52.516;13.294;2023-03-13T08:29:41;18.07;;;4.30;;
47089;SDS011;32840;52.516;13.294;2023-03-13T08:32:27;12.70;;;4.43;;
47089;SDS011;32840;52.516;13.294;2023-03-13T08:35:14;15.50;;;4.22;;
47089;SDS011;32840;52.516;13.294;2023-03-13T08:37:58;20.02;;;4.07;;
47089;SDS011;32840;52.516;13.294;2023-03-13T08:40:43;23.33;;;4.45;;
47089;SDS011;32840;52.516;13.294;2023-03-13T08:43:28;13.70;;;4.05;;
47089;SDS011;32840;52.516;13.294;2023-03-13T08:46:14;14.25;;;3.95;;
47089;SDS011;32840;52.516;13.294;2023-03-13T08:48:59;13.38;;;4.22;;
47089;SDS011;32840;52.516;13.294;2023-03-13T08:51:46;20.42;;;4.20;;
47089;SDS011;32840;52.516;13.294;2023-03-13T08:54:31;11.80;;;3.75;;
47089;SDS011;32840;52.516;13.294;2023-03-13T08:57:17;12.32;;;3.42;;
47089;SDS011;32840;52.516;13.294;2023-03-13T09:00:02;14.45;;;4.15;;
47089;SDS011;32840;52.516;13.294;2023-03-13T09:02:50;12.60;;;3.70;;
47089;SDS011;32840;52.516;13.294;2023-03-13T09:05:39;15.35;;;3.95;;
47089;SDS011;32840;52.516;13.294;2023-03-13T09:08:24;16.98;;;4.28;;
47089;SDS011;32840;52.516;13.294;2023-03-13T09:11:11;13.20;;;3.63;;
47089;SDS011;32840;52.516;13.294;2023-03-13T09:13:57;14.52;;;3.50;;
47089;SDS011;32840;52.516;13.294;2023-03-13T09:16:42;14.57;;;3.78;;
47089;SDS011;32840;52.516;13.294;2023-03-13T09:19:29;12.38;;;3.72;;
47089;SDS011;32840;52.516;13.294;2023-03-13T09:22:14;15.27;;;4.55;;
47089;SDS011;32840;52.516;13.294;2023-03-13T09:24:59;10.95;;;3.35;;
47089;SDS011;32840;52.516;13.294;2023-03-13T09:27:44;17.23;;;3.72;;
47089;SDS011;32840;52.516;13.294;2023-03-13T09:30:29;11.80;;;3.50;;
47089;SDS011;32840;52.516;13.294;2023-03-13T09:33:15;8.57;;;3.05;;
47089;SDS011;32840;52.516;13.294;2023-03-13T09:36:03;14.20;;;4.05;;
47089;SDS011;32840;52.516;13.294;2023-03-13T09:38:48;14.13;;;3.63;;
47089;SDS011;32840;52.516;13.294;2023-03-13T09:41:39;13.38;;;3.40;;
47089;SDS011;32840;52.516;13.294;2023-03-13T09:44:32;14.23;;;3.92;;
47089;SDS011;32840;52.516;13.294;2023-03-13T09:47:30;10.80;;;3.97;;
47089;SDS011;32840;52.516;13.294;2023-03-13T09:50:25;14.75;;;4.05;;
47089;SDS011;32840;52.516;13.294;2023-03-13T09:53:19;15.63;;;4.47;;
47089;SDS011;32840;52.516;13.294;2023-03-13T09:56:24;13.25;;;3.60;;
47089;SDS011;32840;52.516;13.294;2023-03-13T09:59:17;8.65;;;3.30;;
47089;SDS011;32840;52.516;13.294;2023-03-13T10:02:13;10.63;;;3.67;;
47089;SDS011;32840;52.516;13.294;2023-03-13T10:05:13;7.75;;;2.63;;
47089;SDS011;32840;52.516;13.294;2023-03-13T10:08:12;12.80;;;3.15;;
47089;SDS011;32840;52.516;13.294;2023-03-13T10:14:12;11.25;;;2.88;;
47089;SDS011;32840;52.516;13.294;2023-03-13T10:20:32;10.25;;;3.10;;
47089;SDS011;32840;52.516;13.294;2023-03-13T10:23:31;11.50;;;3.83;;
47089;SDS011;32840;52.516;13.294;2023-03-13T10:26:29;12.07;;;3.60;;
47089;SDS011;32840;52.516;13.294;2023-03-13T10:29:21;12.25;;;3.95;;
47089;SDS011;32840;52.516;13.294;2023-03-13T10:32:07;8.57;;;2.77;;
47089;SDS011;32840;52.516;13.294;2023-03-13T10:34:59;8.10;;;2.70;;
47089;SDS011;32840;52.516;13.294;2023-03-13T10:37:44;7.95;;;2.50;;
47089;SDS011;32840;52.516;13.294;2023-03-13T10:40:29;8.77;;;2.88;;
47089;SDS011;32840;52.516;13.294;2023-03-13T10:43:18;8.13;;;2.40;;
47089;SDS011;32840;52.516;13.294;2023-03-13T10:46:04;6.68;;;2.85;;
47089;SDS011;32840;52.516;13.294;2023-03-13T10:48:52;13.63;;;5.85;;
47089;SDS011;32840;52.516;13.294;2023-03-13T10:51:39;9.93;;;2.50;;
47089;SDS011;32840;52.516;13.294;2023-03-13T10:54:28;5.93;;;1.92;;
47089;SDS011;32840;52.516;13.294;2023-03-13T11:00:04;6.38;;;2.40;;
47089;SDS011;32840;52.516;13.294;2023-03-13T11:03:21;5.40;;;2.13;;
47089;SDS011;32840;52.516;13.294;2023-03-13T11:09:16;6.28;;;2.55;;
47089;SDS011;32840;52.516;13.294;2023-03-13T11:12:03;5.68;;;1.70;;
47089;SDS011;32840;52.516;13.294;2023-03-13T11:14:56;6.10;;;2.13;;
47089;SDS011;32840;52.516;13.294;2023-03-13T11:17:51;5.68;;;2.47;;
47089;SDS011;32840;52.516;13.294;2023-03-13T11:21:01;5.75;;;2.50;;
47089;SDS011;32840;52.516;13.294;2023-03-13T11:23:56;5.10;;;1.63;;
47089;SDS011;32840;52.516;13.294;2023-03-13T11:27:01;4.47;;;1.63;;
47089;SDS011;32840;52.516;13.294;2023-03-13T11:36:47;7.38;;;1.55;;
47089;SDS011;32840;52.516;13.294;2023-03-13T11:49:17;4.93;;;1.63;;
47089;SDS011;32840;52.516;13.294;2023-03-13T11:52:11;3.33;;;1.20;;
47089;SDS011;32840;52.516;13.294;2023-03-13T12:01:46;3.70;;;1.45;;
47089;SDS011;32840;52.516;13.294;2023-03-13T12:04:43;3.40;;;1.48;;
47089;SDS011;32840;52.516;13.294;2023-03-13T12:14:22;2.88;;;1.20;;
47089;SDS011;32840;52.516;13.294;2023-03-13T12:17:12;2.35;;;1.08;;
47089;SDS011;32840;52.516;13.294;2023-03-13T12:20:18;3.53;;;1.30;;
47089;SDS011;32840;52.516;13.294;2023-03-13T12:23:41;3.40;;;1.63;;
47089;SDS011;32840;52.516;13.294;2023-03-13T12:32:42;4.68;;;1.20;;
47089;SDS011;32840;52.516;13.294;2023-03-13T12:35:48;3.38;;;1.10;;
47089;SDS011;32840;52.516;13.294;2023-03-13T12:45:18;2.40;;;1.02;;
47089;SDS011;32840;52.516;13.294;2023-03-13T12:51:29;2.17;;;0.85;;
47089;SDS011;32840;52.516;13.294;2023-03-13T12:54:35;3.00;;;0.90;;
47089;SDS011;32840;52.516;13.294;2023-03-13T13:01:46;1.92;;;0.98;;
47089;SDS011;32840;52.516;13.294;2023-03-13T13:04:33;2.70;;;0.70;;
47089;SDS011;32840;52.516;13.294;2023-03-13T13:07:33;6.43;;;1.90;;
47089;SDS011;32840;52.516;13.294;2023-03-13T13:10:22;2.17;;;0.90;;
47089;SDS011;32840;52.516;13.294;2023-03-13T13:16:04;2.90;;;0.88;;
47089;SDS011;32840;52.516;13.294;2023-03-13T13:18:54;3.63;;;1.00;;
47089;SDS011;32840;52.516;13.294;2023-03-13T13:25:28;2.17;;;1.20;;
47089;SDS011;32840;52.516;13.294;2023-03-13T13:31:43;2.50;;;0.85;;
47089;SDS011;32840;52.516;13.294;2023-03-13T13:40:08;3.35;;;1.40;;
47089;SDS011;32840;52.516;13.294;2023-03-13T13:43:19;3.40;;;0.93;;
47089;SDS011;32840;52.516;13.294;2023-03-13T13:49:21;2.47;;;1.20;;
47089;SDS011;32840;52.516;13.294;2023-03-13T13:54:55;5.72;;;1.42;;
47089;SDS011;32840;52.516;13.294;2023-03-13T13:57:41;7.10;;;4.72;;
47089;SDS011;32840;52.516;13.294;2023-03-13T14:00:34;2.20;;;1.02;;
47089;SDS011;32840;52.516;13.294;2023-03-13T14:03:30;2.47;;;0.93;;
47089;SDS011;32840;52.516;13.294;2023-03-13T14:06:17;3.00;;;1.10;;
47089;SDS011;32840;52.516;13.294;2023-03-13T14:09:21;7.32;;;1.40;;
47089;SDS011;32840;52.516;13.294;2023-03-13T14:12:35;2.78;;;1.10;;
47089;SDS011;32840;52.516;13.294;2023-03-13T14:15:22;2.53;;;1.30;;
47089;SDS011;32840;52.516;13.294;2023-03-13T14:18:10;4.22;;;1.10;;
47089;SDS011;32840;52.516;13.294;2023-03-13T14:21:03;3.25;;;1.40;;
47089;SDS011;32840;52.516;13.294;2023-03-13T14:23:58;2.40;;;1.30;;
47089;SDS011;32840;52.516;13.294;2023-03-13T14:26:46;3.55;;;1.50;;
47089;SDS011;32840;52.516;13.294;2023-03-13T14:29:31;5.35;;;1.27;;
47089;SDS011;32840;52.516;13.294;2023-03-13T14:32:16;5.95;;;1.70;;
47089;SDS011;32840;52.516;13.294;2023-03-13T14:35:01;4.30;;;1.20;;
47089;SDS011;32840;52.516;13.294;2023-03-13T14:37:52;3.40;;;1.27;;
47089;SDS011;32840;52.516;13.294;2023-03-13T14:40:45;6.63;;;4.07;;
47089;SDS011;32840;52.516;13.294;2023-03-13T14:43:35;4.40;;;1.52;;
47089;SDS011;32840;52.516;13.294;2023-03-13T14:46:33;2.60;;;1.48;;
47089;SDS011;32840;52.516;13.294;2023-03-13T14:49:19;4.07;;;1.90;;
47089;SDS011;32840;52.516;13.294;2023-03-13T14:52:17;2.95;;;1.25;;
47089;SDS011;32840;52.516;13.294;2023-03-13T14:55:11;3.25;;;1.13;;
47089;SDS011;32840;52.516;13.294;2023-03-13T15:01:14;4.10;;;1.27;;
47089;SDS011;32840;52.516;13.294;2023-03-13T15:04:10;5.55;;;1.20;;
47089;SDS011;32840;52.516;13.294;2023-03-13T15:07:01;5.47;;;1.50;;
47089;SDS011;32840;52.516;13.294;2023-03-13T15:09:50;4.53;;;1.30;;
47089;SDS011;32840;52.516;13.294;2023-03-13T15:12:40;4.03;;;1.35;;
47089;SDS011;32840;52.516;13.294;2023-03-13T15:15:26;2.65;;;1.30;;
47089;SDS011;32840;52.516;13.294;2023-03-13T15:18:21;6.97;;;1.33;;
47089;SDS011;32840;52.516;13.294;2023-03-13T15:21:22;5.47;;;1.60;;
47089;SDS011;32840;52.516;13.294;2023-03-13T15:24:14;3.72;;;1.25;;
47089;SDS011;32840;52.516;13.294;2023-03-13T15:26:59;3.47;;;1.30;;
47089;SDS011;32840;52.516;13.294;2023-03-13T15:29:44;3.63;;;1.60;;
47089;SDS011;32840;52.516;13.294;2023-03-13T15:32:30;5.47;;;2.10;;
47089;SDS011;32840;52.516;13.294;2023-03-13T15:35:25;3.72;;;1.27;;
47089;SDS011;32840;52.516;13.294;2023-03-13T15:38:13;2.72;;;1.25;;
47089;SDS011;32840;52.516;13.294;2023-03-13T15:41:02;5.18;;;1.60;;
47089;SDS011;32840;52.516;13.294;2023-03-13T15:43:48;2.88;;;1.00;;
47089;SDS011;32840;52.516;13.294;2023-03-13T15:46:35;4.75;;;1.50;;
47089;SDS011;32840;52.516;13.294;2023-03-13T15:49:20;11.15;;;2.03;;
47089;SDS011;32840;52.516;13.294;2023-03-13T15:52:15;5.15;;;2.42;;
47089;SDS011;32840;52.516;13.294;2023-03-13T15:57:54;9.40;;;2.00;;
47089;SDS011;32840;52.516;13.294;2023-03-13T16:00:38;4.53;;;1.80;;
47089;SDS011;32840;52.516;13.294;2023-03-13T16:03:24;6.97;;;1.80;;
47089;SDS011;32840;52.516;13.294;2023-03-13T16:09:02;7.22;;;2.00;;
47089;SDS011;32840;52.516;13.294;2023-03-13T16:11:49;6.32;;;2.80;;
47089;SDS011;32840;52.516;13.294;2023-03-13T16:14:34;2.55;;;1.50;;
47089;SDS011;32840;52.516;13.294;2023-03-13T16:17:19;4.82;;;1.40;;
47089;SDS011;32840;52.516;13.294;2023-03-13T16:20:10;6.40;;;1.33;;
47089;SDS011;32840;52.516;13.294;2023-03-13T16:23:00;2.95;;;1.70;;
47089;SDS011;32840;52.516;13.294;2023-03-13T16:25:49;5.38;;;2.80;;
47089;SDS011;32840;52.516;13.294;2023-03-13T16:28:34;3.92;;;2.00;;
47089;SDS011;32840;52.516;13.294;2023-03-13T16:31:20;4.00;;;1.33;;
47089;SDS011;32840;52.516;13.294;2023-03-13T16:34:06;3.80;;;1.52;;
47089;SDS011;32840;52.516;13.294;2023-03-13T16:37:01;5.03;;;1.95;;
47089;SDS011;32840;52.516;13.294;2023-03-13T16:39:58;4.43;;;1.58;;
47089;SDS011;32840;52.516;13.294;2023-03-13T16:42:50;3.90;;;1.88;;
47089;SDS011;32840;52.516;13.294;2023-03-13T16:45:39;9.38;;;1.80;;
47089;SDS011;32840;52.516;13.294;2023-03-13T16:48:25;13.73;;;2.33;;
47089;SDS011;32840;52.516;13.294;2023-03-13T16:51:28;8.13;;;1.85;;
47089;SDS011;32840;52.516;13.294;2023-03-13T16:54:14;5.07;;;1.33;;
47089;SDS011;32840;52.516;13.294;2023-03-13T16:56:59;5.40;;;1.90;;
47089;SDS011;32840;52.516;13.294;2023-03-13T16:59:49;5.55;;;1.95;;
47089;SDS011;32840;52.516;13.294;2023-03-13T17:02:35;9.45;;;1.70;;
47089;SDS011;32840;52.516;13.294;2023-03-13T17:05:20;5.03;;;1.42;;
47089;SDS011;32840;52.516;13.294;2023-03-13T17:08:08;7.25;;;2.35;;
47089;SDS011;32840;52.516;13.294;2023-03-13T17:10:54;16.33;;;2.50;;
47089;SDS011;32840;52.516;13.294;2023-03-13T17:13:40;5.53;;;2.78;;
47089;SDS011;32840;52.516;13.294;2023-03-13T17:16:33;3.10;;;1.77;;
47089;SDS011;32840;52.516;13.294;2023-03-13T17:19:19;9.82;;;2.35;;
47089;SDS011;32840;52.516;13.294;2023-03-13T17:22:04;8.48;;;2.13;;
47089;SDS011;32840;52.516;13.294;2023-03-13T17:24:50;8.15;;;4.40;;
47089;SDS011;32840;52.516;13.294;2023-03-13T17:27:44;7.55;;;2.38;;
47089;SDS011;32840;52.516;13.294;2023-03-13T17:30:48;2.58;;;1.73;;
47089;SDS011;32840;52.516;13.294;2023-03-13T17:33:36;3.85;;;1.65;;
47089;SDS011;32840;52.516;13.294;2023-03-13T17:36:23;3.75;;;2.00;;
47089;SDS011;32840;52.516;13.294;2023-03-13T17:39:10;5.43;;;2.35;;
47089;SDS011;32840;52.516;13.294;2023-03-13T17:41:58;3.67;;;2.53;;
47089;SDS011;32840;52.516;13.294;2023-03-13T17:44:44;4.57;;;2.28;;
47089;SDS011;32840;52.516;13.294;2023-03-13T17:47:29;8.55;;;2.20;;
47089;SDS011;32840;52.516;13.294;2023-03-13T17:50:21;4.88;;;2.30;;
47089;SDS011;32840;52.516;13.294;2023-03-13T17:53:28;7.63;;;5.38;;
47089;SDS011;32840;52.516;13.294;2023-03-13T17:56:14;2.63;;;1.85;;
47089;SDS011;32840;52.516;13.294;2023-03-13T17:59:05;4.03;;;2.05;;
47089;SDS011;32840;52.516;13.294;2023-03-13T18:01:56;6.28;;;2.00;;
47089;SDS011;32840;52.516;13.294;2023-03-13T18:04:45;4.10;;;2.30;;
47089;SDS011;32840;52.516;13.294;2023-03-13T18:07:31;3.38;;;1.98;;
47089;SDS011;32840;52.516;13.294;2023-03-13T18:10:21;2.90;;;1.80;;
47089;SDS011;32840;52.516;13.294;2023-03-13T18:13:11;5.13;;;2.40;;
47089;SDS011;32840;52.516;13.294;2023-03-13T18:15:56;6.10;;;2.42;;